Paintersville, California
Current Conditions -  °F | °C
As of 7:53 PM on Wednesday 28 Jan 2015 (Local Time) from KSAC Reporting Station
Clear Clear  
Wind Chill: 53°   Ceiling: Unl
Heat Index: 53°   Visibility: 9mi
Dew Point: 47°   Wind: 5mph
Humidity: 80%   Direction: 130°SE
Pressure: 30.16"   Gusts: NA
Location:  38.3168°N, 121.532°W
Report Text: KSAC 290353Z 13004KT 9SM CLR 12/08 A3016 RMK AO2 SLP214 T01170083
Loading
Personal Weather Stations






























Interactive Weather Map New forecast layout! Learn more

10-Day Weather Forecast

Advertisements
Track Severe Weather on mobile